createdAt,value
2022-09-16T00:02:27.050Z,13.33
2022-09-16T00:05:29.016Z,13.30
2022-09-16T00:08:32.162Z,13.27
2022-09-16T00:11:34.656Z,13.24
2022-09-16T00:14:36.438Z,13.21
2022-09-16T00:17:38.638Z,13.18
2022-09-16T00:20:47.786Z,13.16
2022-09-16T00:23:49.798Z,13.14
2022-09-16T00:26:51.617Z,13.12
2022-09-16T00:29:53.889Z,13.09
2022-09-16T00:32:55.812Z,13.08
2022-09-16T00:36:15.843Z,13.06
2022-09-16T00:39:17.803Z,13.03
2022-09-16T00:42:19.661Z,13.02
2022-09-16T00:45:23.815Z,13.00
2022-09-16T00:48:27.928Z,12.99
2022-09-16T00:51:29.740Z,12.98
2022-09-16T00:54:31.979Z,12.96
2022-09-16T00:57:34.607Z,12.93
2022-09-16T01:00:38.412Z,12.92
2022-09-16T01:04:04.849Z,12.89
2022-09-16T01:07:06.890Z,12.88
2022-09-16T01:10:09.046Z,12.85
2022-09-16T01:13:12.896Z,12.85
2022-09-16T01:16:38.973Z,12.84
2022-09-16T01:20:04.405Z,12.84
2022-09-16T01:23:09.199Z,12.82
2022-09-16T01:26:28.605Z,12.80
2022-09-16T01:29:45.649Z,12.79
2022-09-16T01:33:27.606Z,12.79
2022-09-16T01:36:50.609Z,12.80
2022-09-16T01:40:10.004Z,12.80
2022-09-16T01:43:21.836Z,12.80
2022-09-16T01:46:31.308Z,12.78
2022-09-16T01:50:03.081Z,12.78
2022-09-16T01:53:32.935Z,12.78
2022-09-16T01:56:48.644Z,12.77
2022-09-16T02:00:04.426Z,12.73
2022-09-16T02:03:19.121Z,12.70
2022-09-16T02:06:23.500Z,12.66
2022-09-16T02:09:56.765Z,12.63
2022-09-16T02:13:04.193Z,12.59
2022-09-16T02:16:21.016Z,12.55
2022-09-16T02:19:51.166Z,12.51
2022-09-16T02:22:58.638Z,12.43
2022-09-16T02:26:01.841Z,12.34
2022-09-16T02:29:09.431Z,12.26
2022-09-16T02:32:12.284Z,12.16
2022-09-16T02:35:16.761Z,12.12
2022-09-16T02:38:41.896Z,12.09
2022-09-16T02:41:43.833Z,12.10
2022-09-16T02:44:47.095Z,12.14
2022-09-16T02:47:59.161Z,12.19
2022-09-16T02:51:13.918Z,12.23
2022-09-16T02:54:39.575Z,12.25
2022-09-16T02:57:41.844Z,12.30
2022-09-16T03:00:46.731Z,12.34
2022-09-16T03:03:48.690Z,12.32
2022-09-16T03:06:50.521Z,12.34
2022-09-16T03:09:52.429Z,12.33
2022-09-16T03:13:08.153Z,12.31
2022-09-16T03:16:17.720Z,12.22
2022-09-16T03:20:01.820Z,12.17
2022-09-16T03:23:20.171Z,12.11
2022-09-16T03:26:32.540Z,12.04
2022-09-16T03:29:37.437Z,12.00
2022-09-16T03:33:06.307Z,11.99
2022-09-16T03:36:09.890Z,11.96
2022-09-16T03:39:12.400Z,11.93
2022-09-16T03:42:14.256Z,11.91
2022-09-16T03:45:18.750Z,11.86
2022-09-16T03:48:20.831Z,11.81
2022-09-16T03:51:24.168Z,11.80
2022-09-16T03:54:26.057Z,11.73
2022-09-16T03:57:28.539Z,11.67
2022-09-16T04:00:30.224Z,11.59
2022-09-16T04:03:33.440Z,11.53
2022-09-16T04:06:35.721Z,11.48
2022-09-16T04:09:37.493Z,11.43
2022-09-16T04:12:40.363Z,11.37
2022-09-16T04:15:42.092Z,11.36
2022-09-16T04:18:43.861Z,11.34
2022-09-16T04:21:45.675Z,11.31
2022-09-16T04:24:47.417Z,11.31
2022-09-16T04:27:49.081Z,11.28
2022-09-16T04:30:51.023Z,11.24
2022-09-16T04:33:54.153Z,11.23
2022-09-16T04:36:55.886Z,11.22
2022-09-16T04:40:01.092Z,11.21
2022-09-16T04:43:06.161Z,11.21
2022-09-16T04:46:08.661Z,11.21
2022-09-16T04:49:12.853Z,11.20
2022-09-16T04:52:14.528Z,11.21
2022-09-16T04:55:16.266Z,11.23
2022-09-16T04:58:18.158Z,11.26
2022-09-16T05:01:32.029Z,11.30
2022-09-16T05:04:33.855Z,11.30
2022-09-16T05:07:35.570Z,11.33
2022-09-16T05:10:37.235Z,11.38
2022-09-16T05:13:39.561Z,11.48
2022-09-16T05:16:41.712Z,11.62
2022-09-16T05:19:43.566Z,12.00
2022-09-16T05:22:45.753Z,12.44
2022-09-16T05:25:47.398Z,12.84
2022-09-16T05:28:51.016Z,13.20
2022-09-16T05:31:52.834Z,13.45
2022-09-16T05:34:55.014Z,13.67
2022-09-16T05:37:56.842Z,13.89
2022-09-16T05:41:00.508Z,14.05
2022-09-16T05:44:02.613Z,14.26
2022-09-16T05:47:04.271Z,14.49
2022-09-16T05:50:06.594Z,14.69
2022-09-16T05:53:08.413Z,14.75
2022-09-16T05:56:14.295Z,14.59
2022-09-16T05:59:17.307Z,14.53
2022-09-16T06:02:19.071Z,14.66
2022-09-16T06:05:22.180Z,14.67
2022-09-16T06:08:24.093Z,14.55
2022-09-16T06:11:27.319Z,14.56
2022-09-16T06:14:29.480Z,14.72
2022-09-16T06:17:31.298Z,14.82
2022-09-16T06:20:33.114Z,14.83
2022-09-16T06:23:35.878Z,15.06
2022-09-16T06:26:39.498Z,15.19
2022-09-16T06:29:41.167Z,15.27
2022-09-16T06:32:42.858Z,15.34
2022-09-16T06:35:44.457Z,15.48
2022-09-16T06:38:47.116Z,15.72
2022-09-16T06:41:49.346Z,16.13
2022-09-16T06:44:51.077Z,16.20
2022-09-16T06:47:52.694Z,16.31
2022-09-16T06:51:02.087Z,16.41
2022-09-16T06:54:06.065Z,16.47
2022-09-16T06:57:11.920Z,16.44
2022-09-16T07:00:14.394Z,16.66
2022-09-16T07:03:16.101Z,16.95
2022-09-16T07:06:19.526Z,16.99
2022-09-16T07:09:22.415Z,16.96
2022-09-16T07:12:24.343Z,16.68
2022-09-16T07:15:26.265Z,16.71
2022-09-16T07:18:29.614Z,17.06
2022-09-16T07:21:31.315Z,17.19
2022-09-16T07:24:34.114Z,17.29
2022-09-16T07:27:35.893Z,17.53
2022-09-16T07:30:37.718Z,17.64
2022-09-16T07:33:42.220Z,17.76
2022-09-16T07:36:47.941Z,17.61
2022-09-16T07:39:50.332Z,17.41
2022-09-16T07:42:52.004Z,17.44
2022-09-16T07:45:58.057Z,18.12
2022-09-16T07:49:01.550Z,18.18
2022-09-16T07:52:03.336Z,17.90
2022-09-16T07:55:05.470Z,17.84
2022-09-16T07:58:07.171Z,17.86
2022-09-16T08:01:09.445Z,17.95
2022-09-16T08:04:11.300Z,18.19
2022-09-16T08:07:13.038Z,18.60
2022-09-16T08:10:14.849Z,19.01
2022-09-16T08:13:16.610Z,19.49
2022-09-16T08:16:20.217Z,19.90
2022-09-16T08:19:23.533Z,19.88
2022-09-16T08:22:25.846Z,19.54
2022-09-16T08:25:27.557Z,19.54
2022-09-16T08:28:39.935Z,19.20
2022-09-16T08:31:52.093Z,18.96
2022-09-16T08:34:53.994Z,18.52
2022-09-16T08:37:56.932Z,18.19
2022-09-16T08:41:06.473Z,17.86
2022-09-16T08:44:30.739Z,17.50
2022-09-16T08:48:09.208Z,17.34
2022-09-16T08:51:16.286Z,17.66
2022-09-16T08:54:34.971Z,17.82
2022-09-16T08:57:42.590Z,17.71
2022-09-16T09:00:47.563Z,17.31
2022-09-16T09:03:49.583Z,17.06
2022-09-16T09:07:17.174Z,16.91
2022-09-16T09:10:42.126Z,16.80
2022-09-16T09:14:03.586Z,16.80
2022-09-16T09:17:29.689Z,17.00
2022-09-16T09:21:04.353Z,17.70
2022-09-16T09:24:10.393Z,18.13
2022-09-16T09:27:33.496Z,18.02
2022-09-16T09:30:37.791Z,18.33
2022-09-16T09:33:48.132Z,18.29
2022-09-16T09:37:19.245Z,18.00
2022-09-16T09:40:28.558Z,17.66
2022-09-16T09:46:48.656Z,17.46
2022-09-16T09:49:54.513Z,18.05
2022-09-16T09:53:02.044Z,18.48
2022-09-16T09:56:31.174Z,19.06
2022-09-16T09:59:42.710Z,19.51
2022-09-16T10:02:49.569Z,20.04
2022-09-16T10:05:51.848Z,20.73
2022-09-16T10:08:57.889Z,21.31
2022-09-16T10:12:00.618Z,21.19
2022-09-16T10:15:03.738Z,20.71
2022-09-16T10:18:26.341Z,20.59
2022-09-16T10:21:48.638Z,21.23
2022-09-16T10:24:56.698Z,21.63
2022-09-16T10:28:01.621Z,21.33
2022-09-16T10:31:03.790Z,20.60
2022-09-16T10:34:43.206Z,19.78
2022-09-16T10:37:52.783Z,19.11
2022-09-16T10:41:16.458Z,18.82
2022-09-16T10:44:23.055Z,18.76
2022-09-16T10:47:27.794Z,18.71
2022-09-16T10:50:29.605Z,18.86
2022-09-16T10:53:39.075Z,18.83
2022-09-16T10:56:51.385Z,18.65
2022-09-16T11:00:02.182Z,18.68
2022-09-16T11:03:29.280Z,18.89
2022-09-16T11:06:52.636Z,18.94
2022-09-16T11:10:28.598Z,18.94
2022-09-16T11:13:55.221Z,19.12
2022-09-16T11:17:15.881Z,19.04
2022-09-16T11:20:44.451Z,18.98
2022-09-16T11:24:03.285Z,18.95
2022-09-16T11:27:13.664Z,18.90
2022-09-16T11:30:19.902Z,18.79
2022-09-16T11:33:50.876Z,18.70
2022-09-16T11:37:04.537Z,18.80
2022-09-16T11:40:18.648Z,18.85
2022-09-16T11:43:39.287Z,18.98
2022-09-16T11:46:49.253Z,19.09
2022-09-16T11:50:17.306Z,19.41
2022-09-16T11:53:37.291Z,19.50
2022-09-16T11:56:48.362Z,19.63
2022-09-16T11:59:55.829Z,19.68
2022-09-16T12:03:05.848Z,19.41
2022-09-16T12:06:24.134Z,19.32
2022-09-16T12:09:40.017Z,19.41
2022-09-16T12:12:47.543Z,19.44
2022-09-16T12:15:53.707Z,19.28
2022-09-16T12:18:58.946Z,19.08
2022-09-16T12:22:06.285Z,18.99
2022-09-16T12:25:15.586Z,19.05
2022-09-16T12:28:28.131Z,19.33
2022-09-16T12:31:44.352Z,19.41
2022-09-16T12:35:02.946Z,19.15
2022-09-16T12:38:05.355Z,18.65
2022-09-16T12:41:25.669Z,18.32
2022-09-16T12:44:58.963Z,17.88
2022-09-16T12:48:16.145Z,17.48
2022-09-16T12:51:23.514Z,17.11
2022-09-16T12:55:03.932Z,16.78
2022-09-16T12:58:19.594Z,16.36
2022-09-16T13:01:25.629Z,15.82
2022-09-16T13:04:35.407Z,15.21
2022-09-16T13:07:37.650Z,14.78
2022-09-16T13:10:55.024Z,14.55
2022-09-16T13:14:00.030Z,14.47
2022-09-16T13:17:05.313Z,14.34
2022-09-16T13:20:17.604Z,14.30
2022-09-16T13:23:26.291Z,14.28
2022-09-16T13:26:39.282Z,14.24
2022-09-16T13:29:44.465Z,14.21
2022-09-16T13:32:59.317Z,14.22
2022-09-16T13:36:30.708Z,14.26
2022-09-16T13:39:34.341Z,14.34
2022-09-16T13:42:36.946Z,14.41
2022-09-16T13:45:45.254Z,14.49
2022-09-16T13:48:57.858Z,14.56
2022-09-16T13:52:11.377Z,14.57
2022-09-16T13:55:22.774Z,14.62
2022-09-16T13:58:38.675Z,14.71
2022-09-16T14:01:59.478Z,14.75
2022-09-16T14:05:28.765Z,14.74
2022-09-16T14:08:58.113Z,14.77
2022-09-16T14:12:11.388Z,14.77
2022-09-16T14:15:13.811Z,14.78
2022-09-16T14:18:20.469Z,14.82
2022-09-16T14:21:24.715Z,14.86
2022-09-16T14:24:37.757Z,14.89
2022-09-16T14:27:39.983Z,14.93
2022-09-16T14:30:47.051Z,14.94
2022-09-16T14:33:56.677Z,14.98
2022-09-16T14:36:59.026Z,15.01
2022-09-16T14:40:08.222Z,15.04
2022-09-16T14:43:15.786Z,15.09
2022-09-16T14:46:17.771Z,15.18
2022-09-16T14:49:19.902Z,15.36
2022-09-16T14:52:24.731Z,15.57
2022-09-16T14:55:32.022Z,15.91
2022-09-16T14:58:34.193Z,15.99
2022-09-16T15:01:35.881Z,15.95
2022-09-16T15:04:39.455Z,15.98
2022-09-16T15:07:56.154Z,16.00
2022-09-16T15:11:29.730Z,16.11
2022-09-16T15:14:38.305Z,16.08
2022-09-16T15:17:40.088Z,16.05
2022-09-16T15:20:42.563Z,16.02
2022-09-16T15:23:50.666Z,16.02
2022-09-16T15:26:53.924Z,16.17
2022-09-16T15:29:59.565Z,16.20
2022-09-16T15:33:02.361Z,16.26
2022-09-16T15:36:04.746Z,16.16
2022-09-16T15:39:34.115Z,16.10
2022-09-16T15:42:36.430Z,16.08
2022-09-16T15:45:39.254Z,16.02
2022-09-16T15:48:45.979Z,15.97
2022-09-16T15:51:49.342Z,16.06
2022-09-16T15:55:00.546Z,16.28
2022-09-16T15:58:28.152Z,16.53
2022-09-16T16:01:41.807Z,16.57
2022-09-16T16:04:43.592Z,16.53
2022-09-16T16:07:48.827Z,16.42
2022-09-16T16:11:07.675Z,16.30
2022-09-16T16:14:09.375Z,16.14
2022-09-16T16:17:19.567Z,16.01
2022-09-16T16:20:21.551Z,15.93
2022-09-16T16:23:23.341Z,15.86
2022-09-16T16:26:25.094Z,15.73
2022-09-16T16:29:29.655Z,15.55
2022-09-16T16:32:32.076Z,15.40
2022-09-16T16:35:33.781Z,15.25
2022-09-16T16:38:35.671Z,15.14
2022-09-16T16:41:37.436Z,15.04
2022-09-16T16:44:39.533Z,14.96
2022-09-16T16:47:42.095Z,14.88
2022-09-16T16:50:43.817Z,14.80
2022-09-16T16:53:49.031Z,14.70
2022-09-16T16:56:51.373Z,14.59
2022-09-16T16:59:53.069Z,14.52
2022-09-16T17:02:54.831Z,14.43
2022-09-16T17:05:56.694Z,14.32
2022-09-16T17:08:58.868Z,14.21
2022-09-16T17:12:00.863Z,14.13
2022-09-16T17:15:03.401Z,14.04
2022-09-16T17:18:05.862Z,13.93
2022-09-16T17:21:18.910Z,13.84
2022-09-16T17:24:21.435Z,13.76
2022-09-16T17:27:25.292Z,13.70
2022-09-16T17:30:27.052Z,13.65
2022-09-16T17:33:28.706Z,13.60
2022-09-16T17:36:31.054Z,13.56
2022-09-16T17:39:32.797Z,13.51
2022-09-16T17:42:34.557Z,13.45
2022-09-16T17:45:36.586Z,13.39
2022-09-16T17:48:38.957Z,13.33
2022-09-16T17:51:41.367Z,13.29
2022-09-16T17:54:43.209Z,13.27
2022-09-16T17:57:45.103Z,13.22
2022-09-16T18:00:47.192Z,13.16
2022-09-16T18:03:52.286Z,13.13
2022-09-16T18:06:54.123Z,13.09
2022-09-16T18:09:56.090Z,13.06
2022-09-16T18:13:00.949Z,13.04
2022-09-16T18:16:23.083Z,13.01
2022-09-16T18:19:25.089Z,12.99
2022-09-16T18:22:27.080Z,12.93
2022-09-16T18:25:29.222Z,12.89
2022-09-16T18:28:35.805Z,12.88
2022-09-16T18:31:49.195Z,12.86
2022-09-16T18:34:50.976Z,12.83
2022-09-16T18:37:53.169Z,12.80
2022-09-16T18:41:09.594Z,12.77
2022-09-16T18:44:14.678Z,12.73
2022-09-16T18:47:16.431Z,12.69
2022-09-16T18:50:18.350Z,12.64
2022-09-16T18:53:20.087Z,12.59
2022-09-16T18:56:24.722Z,12.54
2022-09-16T18:59:28.986Z,12.49
2022-09-16T19:02:30.685Z,12.44
2022-09-16T19:05:32.382Z,12.41
2022-09-16T19:08:34.714Z,12.38
2022-09-16T19:11:37.490Z,12.37
2022-09-16T19:14:39.859Z,12.34
2022-09-16T19:17:41.768Z,12.32
2022-09-16T19:20:44.379Z,12.31
2022-09-16T19:23:48.638Z,12.27
2022-09-16T19:26:53.034Z,12.22
2022-09-16T19:29:54.785Z,12.17
2022-09-16T19:32:56.817Z,12.10
2022-09-16T19:35:58.987Z,11.99
2022-09-16T19:39:01.465Z,11.88
2022-09-16T19:42:03.903Z,11.84
2022-09-16T19:45:06.108Z,11.80
2022-09-16T19:48:08.064Z,11.73
2022-09-16T19:51:12.438Z,11.66
2022-09-16T19:54:14.767Z,11.61
2022-09-16T19:57:16.556Z,11.53
2022-09-16T20:00:18.391Z,11.42
2022-09-16T20:03:20.332Z,11.34
2022-09-16T20:06:32.637Z,11.30
2022-09-16T20:09:34.493Z,11.19
2022-09-16T20:12:36.310Z,11.11
2022-09-16T20:15:38.062Z,11.02
2022-09-16T20:18:39.887Z,10.94
2022-09-16T20:21:41.897Z,10.86
2022-09-16T20:24:44.013Z,10.78
2022-09-16T20:27:45.955Z,10.73
2022-09-16T20:30:47.800Z,10.68
2022-09-16T20:33:50.049Z,10.63
2022-09-16T20:36:52.098Z,10.59
2022-09-16T20:39:54.822Z,10.55
2022-09-16T20:42:56.710Z,10.55
2022-09-16T20:46:07.531Z,10.56
2022-09-16T20:49:14.429Z,10.58
2022-09-16T20:52:16.155Z,10.62
2022-09-16T20:55:18.074Z,10.65
2022-09-16T20:58:19.861Z,10.68
2022-09-16T21:01:24.230Z,10.72
2022-09-16T21:04:26.070Z,10.75
2022-09-16T21:07:28.317Z,10.79
2022-09-16T21:10:30.014Z,10.83
2022-09-16T21:13:32.025Z,10.85
2022-09-16T21:16:36.169Z,10.86
2022-09-16T21:19:40.866Z,10.85
2022-09-16T21:22:45.671Z,10.82
2022-09-16T21:25:47.979Z,10.79
2022-09-16T21:28:55.226Z,10.75
2022-09-16T21:31:57.334Z,10.70
2022-09-16T21:34:59.632Z,10.69
2022-09-16T21:38:01.407Z,10.74
2022-09-16T21:41:06.023Z,10.79
2022-09-16T21:44:08.099Z,10.77
2022-09-16T21:47:11.685Z,10.77
2022-09-16T21:50:13.491Z,10.78
2022-09-16T21:53:15.548Z,10.76
2022-09-16T21:56:19.708Z,10.76
2022-09-16T21:59:21.826Z,10.76
2022-09-16T22:02:23.687Z,10.74
2022-09-16T22:05:25.770Z,10.74
2022-09-16T22:08:27.892Z,10.73
2022-09-16T22:11:32.011Z,10.70
2022-09-16T22:14:33.863Z,10.66
2022-09-16T22:17:35.607Z,10.63
2022-09-16T22:20:38.504Z,10.61
2022-09-16T22:23:41.259Z,10.57
2022-09-16T22:26:43.701Z,10.55
2022-09-16T22:29:45.623Z,10.52
2022-09-16T22:32:47.420Z,10.49
2022-09-16T22:35:49.375Z,10.45
2022-09-16T22:38:56.115Z,10.44
2022-09-16T22:41:58.721Z,10.41
2022-09-16T22:45:00.446Z,10.34
2022-09-16T22:48:02.482Z,10.29
2022-09-16T22:51:05.134Z,10.26
2022-09-16T22:54:07.900Z,10.21
2022-09-16T22:57:09.675Z,10.03
2022-09-16T23:00:12.244Z,9.79
2022-09-16T23:03:14.149Z,9.65
2022-09-16T23:06:37.318Z,9.57
2022-09-16T23:09:55.085Z,9.49
2022-09-16T23:12:59.668Z,9.43
2022-09-16T23:16:04.143Z,9.38
2022-09-16T23:19:09.555Z,9.34
2022-09-16T23:22:11.950Z,9.26
2022-09-16T23:25:13.990Z,9.16
2022-09-16T23:28:15.846Z,9.08
2022-09-16T23:31:19.554Z,9.03
2022-09-16T23:34:22.170Z,9.01
2022-09-16T23:37:24.394Z,8.99
2022-09-16T23:40:28.747Z,8.99
2022-09-16T23:43:30.665Z,8.99
2022-09-16T23:46:33.639Z,8.98
2022-09-16T23:49:35.531Z,8.96
2022-09-16T23:52:37.933Z,8.89
2022-09-16T23:55:44.120Z,8.83
2022-09-16T23:58:46.278Z,8.79
